Pagrindinis puslapis
METAR-TAF:

METAR-TAF

Oro uostai :

Balikesyras, Turkija

platuma: 39-37N, ilguma: 027-55E, Aukštis: 101 m

Dabartinis oras

Ataskaita buvo paskelbta 40 minutes, ne 17:50 UTC
Vėjas 5 kt iš Šiaurės
Temperatūra 4°C
Drėgmė 75%
Slėgis 1028 hPa
Matomumas 10 km arba daugiau
nėra debesų žemiau 1500 m ir nėra kamuolinių lietaus debesų

METAR: LTBF 281750Z 01005KT CAVOK 04/M00 Q1028 NOSIG

Laikas: 21:30 (18:30 UTC)

Prognozė

Ataskaita buvo paskelbta 1 valandą ir 50 minutes, ne 16:40 UTC
Prognozė galioja nuo 28 metu 18 UTC su 01 metu 03 UTC
Vėjas 8 kt iš Šiaurės
Matomumas 10 km arba daugiau
nėra debesų žemiau 1500 m ir nėra kamuolinių lietaus debesų

TAF: LTBF 281640Z 2818/0103 01008KT CAVOK

Orai ataskaitas ir orų prognozės (METAR, TAF).

turimą stotys yra geltonos ir raudonos taškus žemėlapyje.

Perkelti pele per norėdami pamatyti stoties vardą.

Tada spustelėkite, norėdami matyti oro stebėjimo ir prognozės.

Norėdami pakeisti žemėlapį: spustelėkite ant žalios mygtukų su juodo kryžiaus žemyn,; žalią mygtuką su brūkšneliu, jei norite nutolinti; arba žalių rodyklių gretimoms žemėlapius.


METAR-TAF: